createdAt,value
2023-02-23T00:01:58.714Z,18.48
2023-02-23T00:04:25.290Z,18.98
2023-02-23T00:06:53.418Z,18.63
2023-02-23T00:09:23.788Z,19.13
2023-02-23T00:11:53.078Z,19.00
2023-02-23T00:14:27.455Z,17.95
2023-02-23T00:16:55.900Z,18.50
2023-02-23T00:19:24.840Z,18.05
2023-02-23T00:21:52.159Z,18.77
2023-02-23T00:24:23.156Z,17.03
2023-02-23T00:26:51.545Z,17.98
2023-02-23T00:29:21.231Z,19.42
2023-02-23T00:31:49.850Z,19.67
2023-02-23T00:34:24.120Z,17.85
2023-02-23T00:36:55.431Z,17.77
2023-02-23T00:39:25.161Z,18.42
2023-02-23T00:41:52.891Z,18.63
2023-02-23T00:44:21.792Z,18.58
2023-02-23T00:46:51.493Z,17.67
2023-02-23T00:49:19.104Z,18.53
2023-02-23T00:51:47.090Z,18.30
2023-02-23T00:54:15.550Z,19.10
2023-02-23T00:56:42.927Z,19.42
2023-02-23T00:59:10.785Z,19.55
2023-02-23T01:01:38.546Z,19.00
2023-02-23T01:04:06.281Z,17.38
2023-02-23T01:06:33.935Z,19.38
2023-02-23T01:09:05.282Z,18.83
2023-02-23T01:11:32.056Z,19.02
2023-02-23T01:13:59.880Z,19.67
2023-02-23T01:16:29.671Z,19.38
2023-02-23T01:18:58.398Z,19.48
2023-02-23T01:21:28.461Z,20.60
2023-02-23T01:23:55.955Z,18.50
2023-02-23T01:26:34.096Z,19.93
2023-02-23T01:29:09.096Z,18.85
2023-02-23T01:31:37.803Z,19.15
2023-02-23T01:34:06.170Z,19.33
2023-02-23T01:36:37.325Z,18.85
2023-02-23T01:39:07.754Z,18.93
2023-02-23T01:41:37.625Z,19.13
2023-02-23T01:44:07.928Z,19.60
2023-02-23T01:46:39.076Z,19.98
2023-02-23T01:49:09.189Z,19.02
2023-02-23T01:51:41.269Z,20.10
2023-02-23T01:54:16.018Z,18.80
2023-02-23T01:56:47.601Z,20.15
2023-02-23T01:59:16.466Z,18.35
2023-02-23T02:01:43.900Z,19.20
2023-02-23T02:04:16.634Z,19.47
2023-02-23T02:06:45.742Z,20.42
2023-02-23T02:09:19.585Z,20.60
2023-02-23T02:11:46.569Z,20.45
2023-02-23T02:14:14.524Z,20.92
2023-02-23T02:16:43.793Z,20.83
2023-02-23T02:19:18.710Z,20.17
2023-02-23T02:22:04.867Z,21.52
2023-02-23T02:24:41.626Z,19.42
2023-02-23T02:27:17.134Z,20.33
2023-02-23T02:30:21.652Z,19.67
2023-02-23T02:33:06.933Z,19.52
2023-02-23T02:36:05.347Z,19.05
2023-02-23T02:38:55.207Z,19.10
2023-02-23T02:41:53.718Z,19.55
2023-02-23T02:44:39.114Z,18.93
2023-02-23T02:47:12.129Z,20.08
2023-02-23T02:49:52.037Z,20.58
2023-02-23T02:52:33.285Z,19.13
2023-02-23T02:55:09.406Z,19.73
2023-02-23T02:57:37.315Z,20.13
2023-02-23T03:00:23.018Z,19.17
2023-02-23T03:03:07.796Z,20.48
2023-02-23T03:06:04.103Z,20.15
2023-02-23T03:09:07.172Z,19.77
2023-02-23T03:12:03.470Z,19.40
2023-02-23T03:15:08.201Z,19.77
2023-02-23T03:18:12.106Z,19.80
2023-02-23T03:21:12.593Z,20.13
2023-02-23T03:24:24.799Z,21.17
2023-02-23T03:27:18.080Z,20.33
2023-02-23T03:30:02.899Z,18.63
2023-02-23T03:32:54.532Z,19.38
2023-02-23T03:35:49.500Z,19.85
2023-02-23T03:38:59.425Z,18.70
2023-02-23T03:41:46.933Z,19.77
2023-02-23T03:44:36.814Z,19.88
2023-02-23T03:47:24.644Z,19.80
2023-02-23T03:50:12.850Z,20.20
2023-02-23T03:53:09.211Z,19.42
2023-02-23T03:56:01.190Z,18.23
2023-02-23T03:58:56.191Z,18.35
2023-02-23T04:01:47.959Z,18.92
2023-02-23T04:04:32.955Z,18.30
2023-02-23T04:07:21.283Z,18.33
2023-02-23T04:10:07.968Z,17.43
2023-02-23T04:13:00.638Z,17.90
2023-02-23T04:15:33.751Z,19.17
2023-02-23T04:18:00.879Z,19.13
2023-02-23T04:20:27.476Z,17.13
2023-02-23T04:22:55.101Z,17.63
2023-02-23T04:25:24.522Z,17.60
2023-02-23T04:27:51.170Z,17.63
2023-02-23T04:30:18.611Z,18.63
2023-02-23T04:32:46.058Z,20.15
2023-02-23T04:35:13.710Z,19.10
2023-02-23T04:37:40.241Z,18.30
2023-02-23T04:40:07.856Z,17.52
2023-02-23T04:42:34.358Z,18.55
2023-02-23T04:45:00.814Z,18.13
2023-02-23T04:47:29.924Z,17.37
2023-02-23T04:49:56.687Z,18.23
2023-02-23T04:52:23.887Z,18.55
2023-02-23T04:54:50.570Z,19.70
2023-02-23T04:57:17.233Z,20.42
2023-02-23T04:59:43.771Z,19.87
2023-02-23T05:02:10.432Z,19.33
2023-02-23T05:04:37.019Z,18.30
2023-02-23T05:07:04.856Z,18.52
2023-02-23T05:09:31.752Z,18.88
2023-02-23T05:11:58.865Z,18.57
2023-02-23T05:14:25.775Z,17.90
2023-02-23T05:16:52.763Z,18.45
2023-02-23T05:19:19.572Z,19.35
2023-02-23T05:21:46.173Z,19.38
2023-02-23T05:24:12.818Z,19.03
2023-02-23T05:26:39.943Z,18.25
2023-02-23T05:29:06.662Z,19.58
2023-02-23T05:31:33.341Z,17.70
2023-02-23T05:33:59.911Z,18.77
2023-02-23T05:36:31.655Z,18.83
2023-02-23T05:38:58.336Z,17.35
2023-02-23T05:41:24.967Z,18.77
2023-02-23T05:43:53.645Z,17.65
2023-02-23T05:46:24.176Z,17.38
2023-02-23T05:48:55.092Z,18.40
2023-02-23T05:51:22.163Z,19.23
2023-02-23T05:53:48.803Z,17.20
2023-02-23T05:56:20.903Z,17.90
2023-02-23T05:58:55.208Z,17.60
2023-02-23T06:01:22.596Z,18.70
2023-02-23T06:03:50.397Z,17.40
2023-02-23T06:06:17.747Z,18.52
2023-02-23T06:08:44.602Z,17.13
2023-02-23T06:11:11.551Z,19.08
2023-02-23T06:13:38.156Z,18.47
2023-02-23T06:16:05.170Z,18.40
2023-02-23T06:18:31.642Z,17.38
2023-02-23T06:21:02.450Z,17.48
2023-02-23T06:23:30.146Z,17.50
2023-02-23T06:25:56.812Z,17.20
2023-02-23T06:28:23.638Z,17.85
2023-02-23T06:30:54.234Z,16.65
2023-02-23T06:33:21.130Z,17.05
2023-02-23T06:35:47.644Z,15.95
2023-02-23T06:38:15.247Z,16.07
2023-02-23T06:40:42.027Z,15.82
2023-02-23T06:43:08.863Z,16.23
2023-02-23T06:45:35.503Z,16.23
2023-02-23T06:48:02.160Z,15.80
2023-02-23T06:50:28.823Z,16.47
2023-02-23T06:52:57.643Z,17.55
2023-02-23T06:55:24.566Z,17.27
2023-02-23T06:57:51.899Z,14.93
2023-02-23T07:00:18.964Z,15.82
2023-02-23T07:02:45.854Z,16.17
2023-02-23T07:05:12.489Z,16.65
2023-02-23T07:07:39.538Z,16.23
2023-02-23T07:10:07.525Z,15.88
2023-02-23T07:12:34.174Z,14.82
2023-02-23T07:15:00.816Z,15.57
2023-02-23T07:17:27.304Z,15.82
2023-02-23T07:19:53.863Z,16.58
2023-02-23T07:22:20.899Z,16.38
2023-02-23T07:24:48.225Z,16.45
2023-02-23T07:27:14.785Z,14.17
2023-02-23T07:29:43.516Z,14.68
2023-02-23T07:32:10.368Z,15.02
2023-02-23T07:34:37.896Z,16.02
2023-02-23T07:37:04.359Z,16.77
2023-02-23T07:39:31.238Z,16.67
2023-02-23T07:41:58.505Z,16.38
2023-02-23T07:44:25.041Z,15.90
2023-02-23T07:46:52.880Z,16.85
2023-02-23T07:49:21.570Z,18.90
2023-02-23T07:51:48.131Z,17.63
2023-02-23T07:54:15.682Z,17.85
2023-02-23T07:56:42.530Z,16.77
2023-02-23T07:59:09.284Z,17.95
2023-02-23T08:01:36.142Z,19.20
2023-02-23T08:04:02.742Z,18.93
2023-02-23T08:06:30.640Z,18.65
2023-02-23T08:09:00.656Z,18.25
2023-02-23T08:11:30.077Z,17.73
2023-02-23T08:14:00.426Z,18.55
2023-02-23T08:16:28.658Z,18.97
2023-02-23T08:18:58.289Z,18.02
2023-02-23T08:21:25.635Z,17.00
2023-02-23T08:23:52.275Z,17.13
2023-02-23T08:26:22.210Z,17.63
2023-02-23T08:28:48.933Z,17.17
2023-02-23T08:31:18.897Z,17.77
2023-02-23T08:33:46.893Z,17.25
2023-02-23T08:36:13.721Z,16.75
2023-02-23T08:38:40.275Z,17.45
2023-02-23T08:41:07.005Z,17.00
2023-02-23T08:43:33.632Z,17.63
2023-02-23T08:46:00.332Z,17.48
2023-02-23T08:48:27.141Z,16.92
2023-02-23T08:50:58.468Z,16.92
2023-02-23T08:53:29.598Z,16.90
2023-02-23T08:56:00.746Z,16.92
2023-02-23T08:58:28.911Z,15.95
2023-02-23T09:00:55.417Z,15.80
2023-02-23T09:03:23.368Z,15.80
2023-02-23T09:05:50.164Z,16.00
2023-02-23T09:08:16.760Z,16.75
2023-02-23T09:10:46.282Z,16.23
2023-02-23T09:13:13.514Z,14.77
2023-02-23T09:15:40.701Z,14.43
2023-02-23T09:18:08.546Z,14.73
2023-02-23T09:20:35.060Z,14.50
2023-02-23T09:23:01.569Z,15.57
2023-02-23T09:25:29.414Z,14.05
2023-02-23T09:27:59.888Z,14.35
2023-02-23T09:30:27.532Z,13.90
2023-02-23T09:32:55.339Z,13.43
2023-02-23T09:35:24.278Z,13.73
2023-02-23T09:37:53.571Z,12.95
2023-02-23T09:40:29.053Z,13.27
2023-02-23T09:43:07.624Z,12.77
2023-02-23T09:45:43.218Z,11.85
2023-02-23T09:48:19.372Z,11.15
2023-02-23T09:50:52.996Z,10.52
2023-02-23T09:53:43.003Z,10.60
2023-02-23T09:56:24.604Z,10.83
2023-02-23T09:58:51.300Z,10.85
2023-02-23T10:01:36.100Z,10.23
2023-02-23T10:04:27.307Z,10.38
2023-02-23T10:07:01.015Z,11.45
2023-02-23T10:09:46.989Z,11.43
2023-02-23T10:12:16.186Z,10.60
2023-02-23T10:15:14.349Z,11.75
2023-02-23T10:17:53.007Z,10.60
2023-02-23T10:20:38.351Z,10.27
2023-02-23T10:23:09.624Z,11.40
2023-02-23T10:25:43.138Z,10.85
2023-02-23T10:28:16.461Z,9.65
2023-02-23T10:30:44.358Z,10.02
2023-02-23T10:33:32.444Z,9.93
2023-02-23T10:36:13.732Z,10.73
2023-02-23T10:38:41.139Z,9.10
2023-02-23T10:41:09.146Z,10.75
2023-02-23T10:43:35.885Z,9.88
2023-02-23T10:46:02.639Z,10.23
2023-02-23T10:48:43.147Z,8.83
2023-02-23T10:51:20.481Z,9.55
2023-02-23T10:53:47.271Z,9.27
2023-02-23T10:56:17.012Z,8.30
2023-02-23T10:58:48.075Z,8.75
2023-02-23T11:01:35.972Z,9.40
2023-02-23T11:04:21.032Z,7.70
2023-02-23T11:06:49.583Z,8.05
2023-02-23T11:09:45.085Z,8.52
2023-02-23T11:12:22.052Z,7.32
2023-02-23T11:14:50.638Z,8.37
2023-02-23T11:17:30.327Z,8.48
2023-02-23T11:20:03.867Z,9.38
2023-02-23T11:22:36.956Z,8.82
2023-02-23T11:25:24.690Z,8.70
2023-02-23T11:27:53.118Z,8.20
2023-02-23T11:30:42.917Z,7.63
2023-02-23T11:33:16.879Z,8.70
2023-02-23T11:35:43.457Z,7.50
2023-02-23T11:38:23.803Z,7.72
2023-02-23T11:41:01.556Z,7.97
2023-02-23T11:43:28.369Z,6.97
2023-02-23T11:46:00.758Z,7.22
2023-02-23T11:48:49.624Z,5.80
2023-02-23T11:51:34.228Z,6.25
2023-02-23T11:54:05.528Z,5.77
2023-02-23T11:56:34.501Z,6.90
2023-02-23T11:59:04.710Z,7.55
2023-02-23T12:01:51.221Z,6.80
2023-02-23T12:04:38.755Z,6.65
2023-02-23T12:07:56.562Z,5.80
2023-02-23T12:10:31.023Z,7.53
2023-02-23T12:13:08.173Z,7.32
2023-02-23T12:15:45.143Z,7.63
2023-02-23T12:18:53.233Z,7.65
2023-02-23T12:21:44.613Z,7.50
2023-02-23T12:24:42.606Z,8.13
2023-02-23T12:27:34.022Z,7.25
2023-02-23T12:30:39.619Z,7.68
2023-02-23T12:33:15.333Z,7.95
2023-02-23T12:35:59.503Z,7.53
2023-02-23T12:38:46.455Z,7.82
2023-02-23T12:41:19.090Z,7.82
2023-02-23T12:43:52.384Z,6.47
2023-02-23T12:46:26.239Z,8.10
2023-02-23T12:49:46.609Z,7.50
2023-02-23T12:52:20.179Z,6.65
2023-02-23T12:54:47.342Z,6.78
2023-02-23T12:57:35.096Z,6.65
2023-02-23T13:00:30.415Z,7.68
2023-02-23T13:03:24.935Z,6.70
2023-02-23T13:06:04.315Z,7.07
2023-02-23T13:08:51.672Z,7.35
2023-02-23T13:12:03.070Z,6.55
2023-02-23T13:14:51.565Z,7.10
2023-02-23T13:17:40.550Z,7.30
2023-02-23T13:20:21.519Z,6.40
2023-02-23T13:23:09.586Z,6.68
2023-02-23T13:25:45.354Z,5.78
2023-02-23T13:28:28.326Z,6.03
2023-02-23T13:30:55.347Z,6.87
2023-02-23T13:33:41.914Z,6.10
2023-02-23T13:36:12.895Z,6.13
2023-02-23T13:38:47.679Z,6.35
2023-02-23T13:41:30.824Z,4.65
2023-02-23T13:44:26.441Z,5.90
2023-02-23T13:47:10.481Z,6.07
2023-02-23T13:49:49.450Z,6.47
2023-02-23T13:52:41.983Z,5.82
2023-02-23T13:55:46.909Z,6.60
2023-02-23T13:58:19.386Z,6.10
2023-02-23T14:00:54.726Z,5.95
2023-02-23T14:03:29.178Z,6.72
2023-02-23T14:06:00.366Z,6.45
2023-02-23T14:08:36.625Z,6.00
2023-02-23T14:11:04.181Z,6.33
2023-02-23T14:13:34.732Z,5.88
2023-02-23T14:16:17.411Z,5.90
2023-02-23T14:19:10.383Z,5.68
2023-02-23T14:21:52.470Z,6.03
2023-02-23T14:24:27.778Z,5.60
2023-02-23T14:27:38.438Z,5.47
2023-02-23T14:30:15.089Z,4.97
2023-02-23T14:32:43.379Z,6.20
2023-02-23T14:35:47.881Z,6.13
2023-02-23T14:38:38.770Z,7.60
2023-02-23T14:41:12.790Z,7.72
2023-02-23T14:43:42.795Z,7.40
2023-02-23T14:46:25.210Z,7.50
2023-02-23T14:49:12.454Z,7.13
2023-02-23T14:51:52.281Z,9.10
2023-02-23T14:54:31.747Z,8.55
2023-02-23T14:57:01.165Z,8.63
2023-02-23T14:59:36.210Z,8.43
2023-02-23T15:02:11.688Z,9.32
2023-02-23T15:04:39.730Z,9.43
2023-02-23T15:07:07.268Z,9.00
2023-02-23T15:09:42.100Z,11.00
2023-02-23T15:12:16.825Z,10.40
2023-02-23T15:14:43.973Z,10.23
2023-02-23T15:17:17.993Z,11.43
2023-02-23T15:19:45.958Z,11.00
2023-02-23T15:22:24.316Z,10.35
2023-02-23T15:24:50.949Z,7.60
2023-02-23T15:27:28.530Z,4.80
2023-02-23T15:29:58.457Z,3.17
2023-02-23T15:32:26.499Z,3.03
2023-02-23T15:35:03.615Z,2.38
2023-02-23T15:37:39.654Z,1.75
2023-02-23T15:40:24.382Z,2.85
2023-02-23T15:42:57.641Z,2.50
2023-02-23T15:45:30.377Z,2.47
2023-02-23T15:48:22.808Z,2.08
2023-02-23T15:50:53.239Z,2.42
2023-02-23T15:53:33.486Z,2.75
2023-02-23T15:56:12.662Z,2.20
2023-02-23T15:58:56.142Z,3.03
2023-02-23T16:01:26.211Z,1.90
2023-02-23T16:04:16.777Z,1.60
2023-02-23T16:06:52.285Z,2.10
2023-02-23T16:09:22.294Z,1.37
2023-02-23T16:11:52.518Z,1.52
2023-02-23T16:14:21.198Z,1.40
2023-02-23T16:17:08.518Z,2.28
2023-02-23T16:19:41.225Z,2.83
2023-02-23T16:22:19.466Z,1.83
2023-02-23T16:24:52.627Z,2.50
2023-02-23T16:27:20.112Z,2.38
2023-02-23T16:29:47.031Z,2.20
2023-02-23T16:32:25.369Z,2.80
2023-02-23T16:35:00.146Z,2.80
2023-02-23T16:37:28.059Z,2.40
2023-02-23T16:39:58.179Z,2.70
2023-02-23T16:42:33.124Z,2.28
2023-02-23T16:45:01.027Z,2.47
2023-02-23T16:47:47.721Z,2.00
2023-02-23T16:50:21.538Z,2.45
2023-02-23T16:52:53.278Z,2.45
2023-02-23T16:55:29.017Z,2.10
2023-02-23T16:58:02.528Z,1.52
2023-02-23T17:00:31.732Z,2.83
2023-02-23T17:03:01.074Z,1.48
2023-02-23T17:05:28.715Z,1.80
2023-02-23T17:07:56.804Z,2.15
2023-02-23T17:10:29.796Z,2.53
2023-02-23T17:12:59.096Z,2.57
2023-02-23T17:15:29.333Z,1.92
2023-02-23T17:17:56.595Z,1.40
2023-02-23T17:20:25.976Z,2.10
2023-02-23T17:22:57.455Z,1.92
2023-02-23T17:25:26.570Z,2.00
2023-02-23T17:27:54.233Z,1.55
2023-02-23T17:30:21.545Z,1.58
2023-02-23T17:32:49.096Z,1.80
2023-02-23T17:35:16.209Z,2.50
2023-02-23T17:37:43.284Z,2.17
2023-02-23T17:40:13.064Z,2.85
2023-02-23T17:42:40.043Z,3.00
2023-02-23T17:45:08.000Z,2.67
2023-02-23T17:47:36.883Z,2.13
2023-02-23T17:50:03.584Z,2.17
2023-02-23T17:52:30.353Z,2.58
2023-02-23T17:54:57.947Z,1.80
2023-02-23T17:57:30.447Z,1.65
2023-02-23T17:59:57.791Z,2.05
2023-02-23T18:02:27.361Z,1.37
2023-02-23T18:04:53.901Z,1.73
2023-02-23T18:07:21.670Z,1.70
2023-02-23T18:09:50.201Z,1.95
2023-02-23T18:12:18.281Z,2.53
2023-02-23T18:14:46.149Z,2.10
2023-02-23T18:17:13.746Z,1.98
2023-02-23T18:19:40.294Z,2.47
2023-02-23T18:22:07.025Z,1.50
2023-02-23T18:24:33.827Z,1.75
2023-02-23T18:27:04.151Z,2.40
2023-02-23T18:29:34.042Z,1.58
2023-02-23T18:32:02.705Z,1.35
2023-02-23T18:34:30.522Z,1.50
2023-02-23T18:36:58.672Z,2.47
2023-02-23T18:39:25.310Z,1.30
2023-02-23T18:41:52.124Z,1.95
2023-02-23T18:44:18.986Z,2.88
2023-02-23T18:46:46.460Z,1.38
2023-02-23T18:49:15.531Z,1.60
2023-02-23T18:51:43.364Z,1.80
2023-02-23T18:54:13.116Z,2.65
2023-02-23T18:56:40.396Z,2.10
2023-02-23T18:59:07.168Z,1.70
2023-02-23T19:01:35.054Z,2.78
2023-02-23T19:04:02.505Z,1.30
2023-02-23T19:06:32.567Z,1.63
2023-02-23T19:09:00.430Z,1.10
2023-02-23T19:11:32.280Z,1.52
2023-02-23T19:14:02.047Z,1.85
2023-02-23T19:16:31.093Z,1.70
2023-02-23T19:18:59.614Z,1.65
2023-02-23T19:21:26.657Z,1.25
2023-02-23T19:23:56.392Z,1.77
2023-02-23T19:26:23.847Z,1.45
2023-02-23T19:28:50.511Z,1.37
2023-02-23T19:31:21.097Z,1.08
2023-02-23T19:33:49.676Z,1.25
2023-02-23T19:36:19.572Z,1.15
2023-02-23T19:38:48.877Z,1.10
2023-02-23T19:41:20.662Z,1.57
2023-02-23T19:43:48.212Z,1.70
2023-02-23T19:46:17.322Z,1.65
2023-02-23T19:48:49.315Z,1.15
2023-02-23T19:51:15.983Z,1.40
2023-02-23T19:53:42.529Z,1.47
2023-02-23T19:56:13.094Z,1.30
2023-02-23T19:58:44.775Z,0.88
2023-02-23T20:01:14.616Z,1.30
2023-02-23T20:03:43.244Z,1.27
2023-02-23T20:06:14.648Z,1.40
2023-02-23T20:08:45.987Z,1.88
2023-02-23T20:11:12.468Z,1.42
2023-02-23T20:13:39.237Z,1.20
2023-02-23T20:16:16.705Z,1.77
2023-02-23T20:18:44.073Z,1.60
2023-02-23T20:21:17.138Z,2.08
2023-02-23T20:23:45.416Z,1.80
2023-02-23T20:26:16.738Z,2.08
2023-02-23T20:28:43.367Z,1.70
2023-02-23T20:31:30.487Z,1.60
2023-02-23T20:33:58.933Z,1.50
2023-02-23T20:36:26.521Z,1.60
2023-02-23T20:38:53.213Z,1.65
2023-02-23T20:41:20.721Z,1.75
2023-02-23T20:43:47.442Z,2.33
2023-02-23T20:46:16.624Z,2.88
2023-02-23T20:48:44.095Z,2.22
2023-02-23T20:51:15.175Z,2.50
2023-02-23T20:53:46.715Z,3.30
2023-02-23T20:56:15.546Z,2.43
2023-02-23T20:58:42.379Z,2.03
2023-02-23T21:01:23.164Z,2.85
2023-02-23T21:03:54.194Z,2.30
2023-02-23T21:06:24.615Z,2.38
2023-02-23T21:08:55.804Z,2.00
2023-02-23T21:11:26.903Z,1.98
2023-02-23T21:13:54.124Z,1.98
2023-02-23T21:16:23.661Z,1.95
2023-02-23T21:18:54.007Z,1.65
2023-02-23T21:21:21.031Z,2.33
2023-02-23T21:23:48.838Z,2.10
2023-02-23T21:26:16.035Z,1.70
2023-02-23T21:28:44.360Z,2.28
2023-02-23T21:31:12.954Z,2.00
2023-02-23T21:33:42.770Z,2.00
2023-02-23T21:36:11.273Z,2.05
2023-02-23T21:38:43.439Z,2.17
2023-02-23T21:41:15.381Z,2.78
2023-02-23T21:43:43.351Z,2.33
2023-02-23T21:46:16.557Z,3.07
2023-02-23T21:48:43.762Z,2.03
2023-02-23T21:51:12.826Z,2.20
2023-02-23T21:53:43.360Z,2.58
2023-02-23T21:56:14.039Z,2.40
2023-02-23T21:58:49.020Z,2.17
2023-02-23T22:01:18.415Z,2.35
2023-02-23T22:03:46.370Z,1.90
2023-02-23T22:06:17.449Z,2.00
2023-02-23T22:08:44.941Z,3.20
2023-02-23T22:11:19.947Z,2.40
2023-02-23T22:13:48.971Z,3.10
2023-02-23T22:16:17.878Z,2.72
2023-02-23T22:18:44.610Z,2.83
2023-02-23T22:21:14.646Z,3.53
2023-02-23T22:23:43.835Z,3.10
2023-02-23T22:26:10.532Z,3.15
2023-02-23T22:28:37.310Z,2.85
2023-02-23T22:31:07.203Z,3.90
2023-02-23T22:33:35.043Z,3.00
2023-02-23T22:36:03.725Z,3.00
2023-02-23T22:38:30.774Z,3.83
2023-02-23T22:40:57.341Z,3.80
2023-02-23T22:43:23.771Z,3.83
2023-02-23T22:45:54.971Z,4.30
2023-02-23T22:48:23.251Z,3.60
2023-02-23T22:50:50.804Z,3.85
2023-02-23T22:53:17.933Z,4.18
2023-02-23T22:55:49.367Z,3.78
2023-02-23T22:58:16.174Z,3.17
2023-02-23T23:01:01.978Z,3.53
2023-02-23T23:03:32.324Z,2.70
2023-02-23T23:06:02.524Z,2.90
2023-02-23T23:08:30.970Z,2.58
2023-02-23T23:11:04.009Z,2.72
2023-02-23T23:13:33.272Z,3.00
2023-02-23T23:16:07.808Z,2.55
2023-02-23T23:18:36.161Z,2.63
2023-02-23T23:21:13.161Z,2.20
2023-02-23T23:23:42.480Z,2.15
2023-02-23T23:26:19.996Z,2.47
2023-02-23T23:28:58.931Z,2.00
2023-02-23T23:31:29.304Z,1.70
2023-02-23T23:34:00.450Z,1.77
2023-02-23T23:36:32.068Z,1.63
2023-02-23T23:39:01.273Z,1.97
2023-02-23T23:41:38.182Z,3.08
2023-02-23T23:44:05.779Z,2.33
2023-02-23T23:46:38.435Z,2.00
2023-02-23T23:49:08.231Z,2.30
2023-02-23T23:51:44.869Z,2.00
2023-02-23T23:54:19.957Z,2.00
2023-02-23T23:56:46.529Z,2.10
2023-02-23T23:59:20.534Z,1.67
